createdAt,value
2022-11-28T00:02:11.992Z,95.17
2022-11-28T00:04:57.400Z,94.89
2022-11-28T00:07:43.012Z,94.38
2022-11-28T00:10:28.100Z,94.54
2022-11-28T00:13:14.315Z,94.43
2022-11-28T00:16:01.443Z,94.55
2022-11-28T00:18:47.179Z,94.22
2022-11-28T00:21:32.969Z,93.98
2022-11-28T00:24:18.040Z,93.15
2022-11-28T00:27:03.457Z,92.73
2022-11-28T00:29:48.510Z,92.39
2022-11-28T00:32:35.933Z,92.44
2022-11-28T00:35:20.915Z,92.23
2022-11-28T00:38:05.820Z,92.33
2022-11-28T00:41:00.623Z,92.77
2022-11-28T00:43:47.450Z,93.10
2022-11-28T00:46:32.299Z,92.87
2022-11-28T00:49:17.327Z,92.87
2022-11-28T00:52:02.139Z,92.72
2022-11-28T00:54:47.106Z,92.55
2022-11-28T00:57:32.087Z,92.11
2022-11-28T01:00:17.500Z,91.95
2022-11-28T01:03:03.509Z,92.15
2022-11-28T01:05:49.095Z,91.83
2022-11-28T01:08:35.063Z,92.15
2022-11-28T01:11:21.590Z,92.40
2022-11-28T01:14:07.877Z,92.51
2022-11-28T01:16:53.049Z,91.90
2022-11-28T01:19:38.158Z,91.53
2022-11-28T01:22:23.568Z,91.49
2022-11-28T01:25:08.600Z,91.34
2022-11-28T01:27:53.459Z,91.24
2022-11-28T01:30:38.539Z,90.65
2022-11-28T01:33:23.768Z,91.05
2022-11-28T01:36:10.860Z,91.71
2022-11-28T01:38:56.033Z,91.84
2022-11-28T01:41:41.551Z,92.37
2022-11-28T01:44:26.716Z,93.42
2022-11-28T01:47:12.319Z,93.94
2022-11-28T01:49:57.707Z,94.97
2022-11-28T01:52:46.316Z,96.16
2022-11-28T01:55:35.127Z,97.23
2022-11-28T01:58:20.237Z,98.37
2022-11-28T02:01:06.941Z,98.61
2022-11-28T02:03:54.141Z,98.46
2022-11-28T02:06:41.174Z,98.72
2022-11-28T02:09:26.343Z,98.44
2022-11-28T02:12:52.679Z,98.06
2022-11-28T02:15:56.331Z,98.20
2022-11-28T02:18:50.925Z,98.54
2022-11-28T02:21:42.364Z,98.72
2022-11-28T02:24:54.750Z,98.54
2022-11-28T02:28:04.675Z,98.09
2022-11-28T02:31:27.010Z,98.06
2022-11-28T02:34:28.139Z,97.10
2022-11-28T02:37:49.289Z,96.48
2022-11-28T02:40:52.366Z,94.95
2022-11-28T02:43:42.501Z,94.68
2022-11-28T02:46:58.096Z,94.51
2022-11-28T02:49:58.384Z,94.22
2022-11-28T02:52:51.391Z,94.66
2022-11-28T02:55:41.224Z,94.85
2022-11-28T02:58:26.696Z,95.55
2022-11-28T03:01:31.340Z,95.13
2022-11-28T03:04:44.370Z,95.44
2022-11-28T03:08:23.667Z,96.14
2022-11-28T03:11:20.410Z,96.27
2022-11-28T03:14:27.207Z,96.57
2022-11-28T03:17:29.016Z,97.04
2022-11-28T03:20:53.822Z,97.93
2022-11-28T03:23:46.286Z,99.06
2022-11-28T03:26:56.872Z,100.00
2022-11-28T03:29:49.496Z,100.00
2022-11-28T03:32:37.752Z,100.00
2022-11-28T03:35:28.317Z,100.00
2022-11-28T03:38:22.059Z,100.00
2022-11-28T03:41:13.396Z,100.00
2022-11-28T03:44:02.181Z,100.00
2022-11-28T03:46:49.272Z,100.00
2022-11-28T03:49:39.309Z,100.00
2022-11-28T03:52:29.862Z,100.00
2022-11-28T03:55:23.582Z,100.00
2022-11-28T03:58:48.621Z,100.00
2022-11-28T04:01:47.860Z,100.00
2022-11-28T04:04:40.651Z,100.00
2022-11-28T04:07:38.615Z,100.00
2022-11-28T04:10:33.754Z,100.00
2022-11-28T04:13:23.927Z,100.00
2022-11-28T04:16:27.622Z,100.00
2022-11-28T04:19:19.563Z,100.00
2022-11-28T04:22:18.092Z,100.00
2022-11-28T04:25:12.412Z,100.00
2022-11-28T04:28:03.003Z,100.00
2022-11-28T04:30:50.114Z,100.00
2022-11-28T04:33:40.041Z,100.00
2022-11-28T04:36:26.729Z,100.00
2022-11-28T04:39:17.062Z,100.00
2022-11-28T04:42:39.832Z,100.00
2022-11-28T04:45:33.882Z,100.00
2022-11-28T04:48:19.764Z,100.00
2022-11-28T04:51:04.720Z,100.00
2022-11-28T04:54:00.945Z,100.00
2022-11-28T04:56:53.146Z,100.00
2022-11-28T04:59:39.532Z,100.00
2022-11-28T05:02:26.267Z,100.00
2022-11-28T05:05:16.382Z,100.00
2022-11-28T05:08:02.611Z,100.00
2022-11-28T05:10:48.237Z,100.00
2022-11-28T05:13:33.679Z,99.74
2022-11-28T05:16:18.733Z,100.00
2022-11-28T05:19:03.937Z,99.79
2022-11-28T05:21:48.914Z,99.07
2022-11-28T05:24:34.180Z,99.12
2022-11-28T05:27:19.138Z,99.44
2022-11-28T05:30:05.172Z,99.00
2022-11-28T05:32:50.605Z,98.99
2022-11-28T05:35:39.649Z,100.00
2022-11-28T05:38:24.444Z,100.00
2022-11-28T05:41:10.505Z,100.00
2022-11-28T05:43:56.612Z,100.00
2022-11-28T05:46:41.688Z,100.00
2022-11-28T05:49:26.719Z,99.60
2022-11-28T05:52:11.622Z,99.58
2022-11-28T05:54:56.493Z,99.97
2022-11-28T05:57:41.415Z,100.00
2022-11-28T06:00:26.753Z,100.00
2022-11-28T06:03:11.896Z,100.00
2022-11-28T06:05:57.319Z,100.00
2022-11-28T06:08:43.569Z,100.00
2022-11-28T06:11:31.010Z,100.00
2022-11-28T06:14:16.233Z,99.99
2022-11-28T06:17:01.235Z,99.34
2022-11-28T06:19:46.747Z,98.30
2022-11-28T06:22:31.672Z,97.39
2022-11-28T06:25:17.334Z,96.94
2022-11-28T06:28:02.449Z,97.07
2022-11-28T06:30:48.000Z,96.66
2022-11-28T06:33:33.270Z,96.88
2022-11-28T06:36:19.204Z,97.04
2022-11-28T06:39:04.664Z,97.02
2022-11-28T06:41:49.611Z,96.81
2022-11-28T06:44:34.737Z,96.80
2022-11-28T06:47:19.778Z,97.40
2022-11-28T06:50:05.230Z,97.21
2022-11-28T06:52:50.299Z,97.39
2022-11-28T06:55:35.770Z,97.00
2022-11-28T06:58:20.775Z,96.25
2022-11-28T07:01:17.609Z,96.98
2022-11-28T07:04:02.923Z,96.67
2022-11-28T07:06:47.917Z,97.15
2022-11-28T07:09:32.851Z,96.70
2022-11-28T07:12:17.955Z,97.12
2022-11-28T07:15:04.317Z,96.85
2022-11-28T07:17:50.088Z,97.16
2022-11-28T07:20:35.460Z,97.42
2022-11-28T07:23:20.244Z,97.48
2022-11-28T07:26:05.671Z,97.74
2022-11-28T07:28:51.861Z,97.99
2022-11-28T07:31:37.387Z,98.03
2022-11-28T07:34:24.552Z,97.43
2022-11-28T07:37:11.345Z,97.87
2022-11-28T07:39:56.692Z,98.74
2022-11-28T07:42:41.948Z,99.33
2022-11-28T07:45:41.917Z,99.49
2022-11-28T07:48:33.262Z,98.86
2022-11-28T07:51:28.533Z,99.30
2022-11-28T07:54:14.057Z,99.49
2022-11-28T07:57:14.634Z,99.22
2022-11-28T07:59:59.925Z,99.49
2022-11-28T08:02:45.403Z,100.00
2022-11-28T08:05:30.331Z,100.00
2022-11-28T08:08:19.622Z,100.00
2022-11-28T08:11:07.545Z,100.00
2022-11-28T08:13:55.048Z,100.00
2022-11-28T08:16:42.993Z,100.00
2022-11-28T08:19:33.831Z,100.00
2022-11-28T08:22:20.590Z,100.00
2022-11-28T08:25:05.808Z,100.00
2022-11-28T08:27:51.264Z,100.00
2022-11-28T08:30:36.085Z,100.00
2022-11-28T08:33:22.620Z,100.00
2022-11-28T08:36:09.652Z,100.00
2022-11-28T08:39:09.787Z,100.00
2022-11-28T08:42:00.239Z,100.00
2022-11-28T08:44:45.682Z,100.00
2022-11-28T08:47:30.576Z,100.00
2022-11-28T08:50:15.796Z,100.00
2022-11-28T08:53:07.822Z,100.00
2022-11-28T08:55:53.283Z,100.00
2022-11-28T08:58:38.651Z,100.00
2022-11-28T09:01:25.981Z,100.00
2022-11-28T09:04:11.418Z,100.00
2022-11-28T09:06:56.816Z,99.80
2022-11-28T09:09:41.879Z,99.35
2022-11-28T09:12:26.745Z,99.25
2022-11-28T09:15:11.716Z,99.60
2022-11-28T09:17:56.746Z,99.48
2022-11-28T09:20:42.150Z,98.38
2022-11-28T09:23:27.109Z,97.92
2022-11-28T09:26:20.229Z,97.24
2022-11-28T09:29:05.572Z,96.39
2022-11-28T09:31:50.418Z,95.97
2022-11-28T09:34:35.300Z,95.58
2022-11-28T09:37:20.181Z,95.88
2022-11-28T09:40:13.193Z,95.04
2022-11-28T09:43:01.523Z,94.50
2022-11-28T09:45:53.065Z,94.41
2022-11-28T09:48:44.867Z,94.70
2022-11-28T09:51:42.173Z,94.66
2022-11-28T09:54:54.030Z,94.77
2022-11-28T09:57:44.008Z,94.32
2022-11-28T10:00:47.239Z,94.12
2022-11-28T10:04:01.024Z,94.04
2022-11-28T10:06:57.344Z,93.90
2022-11-28T10:10:00.251Z,93.98
2022-11-28T10:12:48.367Z,94.07
2022-11-28T10:15:47.451Z,93.08
2022-11-28T10:18:38.464Z,93.44
2022-11-28T10:21:41.542Z,93.80
2022-11-28T10:24:38.322Z,93.84
2022-11-28T10:27:32.878Z,94.04
2022-11-28T10:30:27.520Z,94.17
2022-11-28T10:33:24.267Z,93.60
2022-11-28T10:36:20.167Z,93.79
2022-11-28T10:39:13.136Z,93.05
2022-11-28T10:42:12.619Z,92.88
2022-11-28T10:45:27.003Z,92.91
2022-11-28T10:48:39.710Z,94.15
2022-11-28T10:51:32.454Z,94.50
2022-11-28T10:54:36.605Z,94.20
2022-11-28T10:57:53.413Z,93.61
2022-11-28T11:00:39.730Z,94.16
2022-11-28T11:03:32.170Z,94.12
2022-11-28T11:06:17.693Z,93.90
2022-11-28T11:09:03.225Z,93.98
2022-11-28T11:11:58.331Z,93.84
2022-11-28T11:14:43.864Z,93.88
2022-11-28T11:17:36.592Z,94.23
2022-11-28T11:20:38.183Z,94.52
2022-11-28T11:23:23.567Z,93.91
2022-11-28T11:26:25.050Z,94.13
2022-11-28T11:29:40.728Z,94.30
2022-11-28T11:32:28.722Z,95.35
2022-11-28T11:35:24.272Z,95.78
2022-11-28T11:38:21.734Z,96.94
2022-11-28T11:41:20.802Z,96.87
2022-11-28T11:44:33.888Z,96.88
2022-11-28T11:47:19.461Z,96.58
2022-11-28T11:50:05.730Z,96.51
2022-11-28T11:53:10.868Z,96.02
2022-11-28T11:56:02.160Z,96.50
2022-11-28T11:58:51.951Z,95.66
2022-11-28T12:01:38.803Z,94.71
2022-11-28T12:04:48.923Z,94.87
2022-11-28T12:07:48.339Z,94.96
2022-11-28T12:10:39.801Z,95.30
2022-11-28T12:13:25.043Z,96.18
2022-11-28T12:16:31.825Z,95.60
2022-11-28T12:19:35.910Z,95.22
2022-11-28T12:22:39.406Z,95.26
2022-11-28T12:25:51.323Z,96.08
2022-11-28T12:28:47.458Z,95.54
2022-11-28T12:31:44.602Z,96.30
2022-11-28T12:35:14.507Z,96.19
2022-11-28T12:38:18.083Z,96.10
2022-11-28T12:41:32.817Z,95.63
2022-11-28T12:44:27.536Z,96.15
2022-11-28T12:47:31.051Z,96.04
2022-11-28T12:50:32.769Z,96.20
2022-11-28T12:53:30.099Z,97.10
2022-11-28T12:57:03.948Z,96.72
2022-11-28T13:00:06.991Z,96.64
2022-11-28T13:03:25.622Z,96.65
2022-11-28T13:06:23.874Z,96.57
2022-11-28T13:09:32.833Z,96.99
2022-11-28T13:12:39.547Z,96.96
2022-11-28T13:15:54.336Z,96.89
2022-11-28T13:18:43.427Z,96.94
2022-11-28T13:21:50.655Z,97.95
2022-11-28T13:25:00.335Z,98.24
2022-11-28T13:27:53.505Z,98.33
2022-11-28T13:30:52.607Z,98.92
2022-11-28T13:33:50.510Z,99.56
2022-11-28T13:40:38.185Z,99.84
2022-11-28T13:43:54.644Z,100.00
2022-11-28T13:46:39.741Z,100.00
2022-11-28T13:49:27.279Z,100.00
2022-11-28T13:52:18.416Z,100.00
2022-11-28T13:55:04.000Z,100.00
2022-11-28T13:57:49.305Z,100.00
2022-11-28T14:00:34.691Z,100.00
2022-11-28T14:03:20.716Z,100.00
2022-11-28T14:06:07.251Z,100.00
2022-11-28T14:09:26.574Z,100.00
2022-11-28T14:12:27.454Z,100.00
2022-11-28T14:15:31.618Z,100.00
2022-11-28T14:22:14.561Z,100.00
2022-11-28T14:25:08.404Z,100.00
2022-11-28T14:27:57.248Z,100.00
2022-11-28T14:30:45.386Z,100.00
2022-11-28T14:33:37.898Z,100.00
2022-11-28T14:36:31.473Z,100.00
2022-11-28T14:39:17.040Z,100.00
2022-11-28T14:42:02.444Z,100.00
2022-11-28T14:44:59.097Z,100.00
2022-11-28T14:48:07.463Z,100.00
2022-11-28T14:50:59.330Z,100.00
2022-11-28T14:53:49.001Z,100.00
2022-11-28T14:56:34.375Z,100.00
2022-11-28T14:59:23.953Z,100.00
2022-11-28T15:02:12.335Z,100.00
2022-11-28T15:05:13.218Z,100.00
2022-11-28T15:08:15.707Z,100.00
2022-11-28T15:11:25.638Z,100.00
2022-11-28T15:14:13.841Z,100.00
2022-11-28T15:17:05.560Z,100.00
2022-11-28T15:19:51.467Z,100.00
2022-11-28T15:22:42.113Z,100.00
2022-11-28T15:25:30.588Z,100.00
2022-11-28T15:28:18.647Z,100.00
2022-11-28T15:31:04.533Z,100.00
2022-11-28T15:33:51.115Z,100.00
2022-11-28T15:36:37.698Z,100.00
2022-11-28T15:39:28.192Z,100.00
2022-11-28T15:42:23.849Z,100.00
2022-11-28T15:45:18.131Z,100.00
2022-11-28T15:48:04.195Z,100.00
2022-11-28T15:50:50.733Z,100.00
2022-11-28T15:53:41.348Z,100.00
2022-11-28T15:56:26.954Z,100.00
2022-11-28T15:59:11.870Z,100.00
2022-11-28T16:02:05.492Z,100.00
2022-11-28T16:05:00.605Z,100.00
2022-11-28T16:07:45.885Z,100.00
2022-11-28T16:10:37.848Z,100.00
2022-11-28T16:13:23.568Z,100.00
2022-11-28T16:16:12.516Z,100.00
2022-11-28T16:19:00.258Z,100.00
2022-11-28T16:21:56.533Z,100.00
2022-11-28T16:25:12.441Z,100.00
2022-11-28T16:27:57.504Z,100.00
2022-11-28T16:30:43.593Z,100.00
2022-11-28T16:33:35.694Z,100.00
2022-11-28T16:36:36.372Z,100.00
2022-11-28T16:39:21.578Z,100.00
2022-11-28T16:42:13.489Z,100.00
2022-11-28T16:45:10.764Z,100.00
2022-11-28T16:48:22.412Z,100.00
2022-11-28T16:51:10.761Z,100.00
2022-11-28T16:53:57.107Z,100.00
2022-11-28T16:56:43.554Z,100.00
2022-11-28T16:59:29.098Z,100.00
2022-11-28T17:02:20.522Z,100.00
2022-11-28T17:05:06.026Z,100.00
2022-11-28T17:07:51.343Z,100.00
2022-11-28T17:10:36.586Z,100.00
2022-11-28T17:13:21.500Z,100.00
2022-11-28T17:16:14.735Z,100.00
2022-11-28T17:19:00.073Z,100.00
2022-11-28T17:21:48.758Z,100.00
2022-11-28T17:24:35.754Z,100.00
2022-11-28T17:27:21.230Z,100.00
2022-11-28T17:30:06.919Z,100.00
2022-11-28T17:32:52.229Z,100.00
2022-11-28T17:35:39.964Z,100.00
2022-11-28T17:38:25.373Z,100.00
2022-11-28T17:41:14.530Z,100.00
2022-11-28T17:43:59.691Z,100.00
2022-11-28T17:46:44.709Z,100.00
2022-11-28T17:49:30.223Z,100.00
2022-11-28T17:52:15.826Z,100.00
2022-11-28T17:55:06.371Z,100.00
2022-11-28T17:57:52.396Z,100.00
2022-11-28T18:00:37.713Z,100.00
2022-11-28T18:03:23.207Z,100.00
2022-11-28T18:06:19.866Z,100.00
2022-11-28T18:09:11.661Z,100.00
2022-11-28T18:11:57.754Z,100.00
2022-11-28T18:14:43.091Z,100.00
2022-11-28T18:17:28.467Z,100.00
2022-11-28T18:20:14.124Z,100.00
2022-11-28T18:23:00.434Z,100.00
2022-11-28T18:25:46.058Z,100.00
2022-11-28T18:28:31.086Z,100.00
2022-11-28T18:31:19.060Z,100.00
2022-11-28T18:34:06.812Z,100.00
2022-11-28T18:36:52.155Z,100.00
2022-11-28T18:39:37.141Z,100.00
2022-11-28T18:42:22.337Z,100.00
2022-11-28T18:45:09.429Z,100.00
2022-11-28T18:47:59.925Z,100.00
2022-11-28T18:50:45.827Z,100.00
2022-11-28T18:53:31.944Z,100.00
2022-11-28T18:56:17.315Z,100.00
2022-11-28T18:59:03.062Z,100.00
2022-11-28T19:01:48.484Z,100.00
2022-11-28T19:04:33.480Z,100.00
2022-11-28T19:07:18.568Z,100.00
2022-11-28T19:10:04.245Z,100.00
2022-11-28T19:12:49.499Z,100.00
2022-11-28T19:15:39.000Z,100.00
2022-11-28T19:18:23.819Z,100.00
2022-11-28T19:21:11.499Z,100.00
2022-11-28T19:23:57.445Z,100.00
2022-11-28T19:26:42.657Z,100.00
2022-11-28T19:29:27.814Z,100.00
2022-11-28T19:32:12.694Z,100.00
2022-11-28T19:34:57.566Z,100.00
2022-11-28T19:37:42.513Z,100.00
2022-11-28T19:40:27.536Z,100.00
2022-11-28T19:43:13.108Z,100.00
2022-11-28T19:45:58.552Z,100.00
2022-11-28T19:48:43.910Z,100.00
2022-11-28T19:51:29.010Z,100.00
2022-11-28T19:54:15.130Z,100.00
2022-11-28T19:57:00.274Z,100.00
2022-11-28T19:59:45.640Z,100.00
2022-11-28T20:02:31.511Z,100.00
2022-11-28T20:05:16.723Z,100.00
2022-11-28T20:08:02.208Z,100.00
2022-11-28T20:10:47.566Z,100.00
2022-11-28T20:13:32.907Z,100.00
2022-11-28T20:16:18.401Z,100.00
2022-11-28T20:19:05.134Z,100.00
2022-11-28T20:21:50.404Z,100.00
2022-11-28T20:24:35.624Z,100.00
2022-11-28T20:27:20.766Z,100.00
2022-11-28T20:30:06.545Z,100.00
2022-11-28T20:32:53.421Z,100.00
2022-11-28T20:35:38.696Z,100.00
2022-11-28T20:38:23.574Z,100.00
2022-11-28T20:41:11.524Z,100.00
2022-11-28T20:43:59.318Z,100.00
2022-11-28T20:46:45.064Z,100.00
2022-11-28T20:49:30.139Z,100.00
2022-11-28T20:52:15.311Z,100.00
2022-11-28T20:55:00.475Z,100.00
2022-11-28T20:57:45.461Z,100.00
2022-11-28T21:00:30.513Z,100.00
2022-11-28T21:03:15.620Z,100.00
2022-11-28T21:06:01.472Z,100.00
2022-11-28T21:08:47.420Z,100.00
2022-11-28T21:11:55.676Z,100.00
2022-11-28T21:14:37.824Z,100.00
2022-11-28T21:17:23.155Z,100.00
2022-11-28T21:20:08.896Z,100.00
2022-11-28T21:22:55.202Z,100.00
2022-11-28T21:25:41.957Z,100.00
2022-11-28T21:28:27.004Z,100.00
2022-11-28T21:31:16.164Z,100.00
2022-11-28T21:34:01.431Z,100.00
2022-11-28T21:36:46.735Z,100.00
2022-11-28T21:39:31.841Z,100.00
2022-11-28T21:42:20.493Z,100.00
2022-11-28T21:45:06.557Z,100.00
2022-11-28T21:47:52.039Z,100.00
2022-11-28T21:50:37.621Z,100.00
2022-11-28T21:53:22.494Z,100.00
2022-11-28T21:56:07.475Z,100.00
2022-11-28T21:58:52.946Z,100.00
2022-11-28T22:01:38.186Z,100.00
2022-11-28T22:04:23.226Z,100.00
2022-11-28T22:07:09.099Z,100.00
2022-11-28T22:12:57.740Z,100.00
2022-11-28T22:15:43.017Z,100.00
2022-11-28T22:18:29.387Z,100.00
2022-11-28T22:21:50.071Z,100.00
2022-11-28T22:24:19.741Z,100.00
2022-11-28T22:27:04.641Z,100.00
2022-11-28T22:29:49.574Z,100.00
2022-11-28T22:32:34.849Z,100.00
2022-11-28T22:35:19.588Z,100.00
2022-11-28T22:38:04.609Z,100.00
2022-11-28T22:40:49.628Z,100.00
2022-11-28T22:43:34.815Z,100.00
2022-11-28T22:46:20.101Z,100.00
2022-11-28T22:49:05.302Z,100.00
2022-11-28T22:51:50.106Z,100.00
2022-11-28T22:54:36.615Z,100.00
2022-11-28T22:57:21.554Z,100.00
2022-11-28T23:00:08.814Z,100.00
2022-11-28T23:02:53.940Z,100.00
2022-11-28T23:05:39.511Z,100.00
2022-11-28T23:08:24.853Z,100.00
2022-11-28T23:11:17.116Z,100.00
2022-11-28T23:14:02.963Z,100.00
2022-11-28T23:16:48.352Z,100.00
2022-11-28T23:19:33.823Z,100.00
2022-11-28T23:22:18.878Z,100.00
2022-11-28T23:25:03.976Z,100.00
2022-11-28T23:27:49.140Z,100.00
2022-11-28T23:30:34.789Z,100.00
2022-11-28T23:33:20.148Z,100.00
2022-11-28T23:36:20.154Z,100.00
2022-11-28T23:39:09.491Z,100.00
2022-11-28T23:41:54.571Z,100.00
2022-11-28T23:44:39.966Z,100.00
2022-11-28T23:47:25.176Z,100.00
2022-11-28T23:50:10.300Z,100.00
2022-11-28T23:52:55.353Z,100.00
2022-11-28T23:55:40.494Z,100.00
2022-11-28T23:58:25.795Z,100.00
